sensor_id;sensor_type;location;lat;lon;timestamp;pressure;altitude;pressure_sealevel;temperature;humidity
22181;BME280;11256;50.830;12.834;2023-03-15T00:02:29;96904.13;;;4.74;68.91
22181;BME280;11256;50.830;12.834;2023-03-15T00:07:30;96918.63;;;4.78;68.71
22181;BME280;11256;50.830;12.834;2023-03-15T00:12:31;96929.34;;;4.78;68.97
22181;BME280;11256;50.830;12.834;2023-03-15T00:17:33;96927.69;;;4.67;68.95
22181;BME280;11256;50.830;12.834;2023-03-15T00:22:33;96933.06;;;4.67;68.61
22181;BME280;11256;50.830;12.834;2023-03-15T00:27:34;96937.34;;;4.68;68.70
22181;BME280;11256;50.830;12.834;2023-03-15T00:32:34;96934.13;;;4.61;68.74
22181;BME280;11256;50.830;12.834;2023-03-15T00:37:36;96949.97;;;4.67;68.67
22181;BME280;11256;50.830;12.834;2023-03-15T00:42:37;96940.56;;;4.60;68.83
22181;BME280;11256;50.830;12.834;2023-03-15T00:47:37;96952.31;;;4.54;69.23
22181;BME280;11256;50.830;12.834;2023-03-15T00:52:37;96954.47;;;4.57;68.83
22181;BME280;11256;50.830;12.834;2023-03-15T00:57:39;96955.50;;;4.51;69.13
22181;BME280;11256;50.830;12.834;2023-03-15T01:02:40;96968.38;;;4.49;69.26
22181;BME280;11256;50.830;12.834;2023-03-15T01:07:40;96964.34;;;4.46;69.43
22181;BME280;11256;50.830;12.834;2023-03-15T01:12:41;96961.13;;;4.44;68.89
22181;BME280;11256;50.830;12.834;2023-03-15T01:17:43;96960.81;;;4.36;69.27
22181;BME280;11256;50.830;12.834;2023-03-15T01:22:43;96949.22;;;4.30;69.36
22181;BME280;11256;50.830;12.834;2023-03-15T01:27:43;96967.22;;;4.35;69.26
22181;BME280;11256;50.830;12.834;2023-03-15T01:32:44;96959.13;;;4.25;69.14
22181;BME280;11256;50.830;12.834;2023-03-15T01:37:44;96964.50;;;4.25;68.98
22181;BME280;11256;50.830;12.834;2023-03-15T01:47:52;96972.97;;;4.12;69.35
22181;BME280;11256;50.830;12.834;2023-03-15T01:52:53;96968.09;;;4.04;69.42
22181;BME280;11256;50.830;12.834;2023-03-15T01:57:56;96971.63;;;4.14;69.11
22181;BME280;11256;50.830;12.834;2023-03-15T02:03:12;96981.53;;;4.09;69.27
22181;BME280;11256;50.830;12.834;2023-03-15T02:08:18;96976.13;;;4.04;69.30
22181;BME280;11256;50.830;12.834;2023-03-15T02:13:21;96986.31;;;4.07;69.22
22181;BME280;11256;50.830;12.834;2023-03-15T02:18:22;96975.28;;;3.98;69.12
22181;BME280;11256;50.830;12.834;2023-03-15T02:23:25;96991.09;;;4.00;68.83
22181;BME280;11256;50.830;12.834;2023-03-15T02:28:26;96993.44;;;3.91;69.15
22181;BME280;11256;50.830;12.834;2023-03-15T02:33:29;97009.31;;;3.98;68.96
22181;BME280;11256;50.830;12.834;2023-03-15T02:38:31;97005.00;;;3.97;69.17
22181;BME280;11256;50.830;12.834;2023-03-15T02:43:32;96997.88;;;3.81;69.14
22181;BME280;11256;50.830;12.834;2023-03-15T02:48:34;97024.19;;;3.84;69.03
22181;BME280;11256;50.830;12.834;2023-03-15T02:53:36;97035.38;;;3.76;69.37
22181;BME280;11256;50.830;12.834;2023-03-15T02:58:37;97028.31;;;3.65;69.14
22181;BME280;11256;50.830;12.834;2023-03-15T03:03:39;97037.66;;;3.62;69.36
22181;BME280;11256;50.830;12.834;2023-03-15T03:08:39;97057.25;;;3.68;69.50
22181;BME280;11256;50.830;12.834;2023-03-15T03:13:42;97072.19;;;3.64;69.30
22181;BME280;11256;50.830;12.834;2023-03-15T03:18:42;97078.06;;;3.61;68.94
22181;BME280;11256;50.830;12.834;2023-03-15T03:23:43;97074.72;;;3.49;69.06
22181;BME280;11256;50.830;12.834;2023-03-15T03:28:46;97084.84;;;3.47;69.39
22181;BME280;11256;50.830;12.834;2023-03-15T03:33:47;97084.25;;;3.40;69.07
22181;BME280;11256;50.830;12.834;2023-03-15T03:38:48;97091.97;;;3.36;69.43
22181;BME280;11256;50.830;12.834;2023-03-15T03:43:49;97090.00;;;3.27;69.76
22181;BME280;11256;50.830;12.834;2023-03-15T03:48:50;97101.25;;;3.29;69.55
22181;BME280;11256;50.830;12.834;2023-03-15T03:53:51;97112.13;;;3.22;69.28
22181;BME280;11256;50.830;12.834;2023-03-15T03:58:51;97107.22;;;3.14;69.41
22181;BME280;11256;50.830;12.834;2023-03-15T04:04:12;97110.00;;;3.03;69.75
22181;BME280;11256;50.830;12.834;2023-03-15T04:09:14;97136.34;;;3.11;69.70
22181;BME280;11256;50.830;12.834;2023-03-15T04:14:17;97142.19;;;3.08;70.12
22181;BME280;11256;50.830;12.834;2023-03-15T04:19:20;97142.09;;;3.03;69.85
22181;BME280;11256;50.830;12.834;2023-03-15T04:24:21;97154.34;;;2.99;69.48
22181;BME280;11256;50.830;12.834;2023-03-15T04:29:51;97158.59;;;2.95;69.69
22181;BME280;11256;50.830;12.834;2023-03-15T04:35:11;97163.34;;;2.93;69.65
22181;BME280;11256;50.830;12.834;2023-03-15T04:40:25;97170.75;;;2.86;69.92
22181;BME280;11256;50.830;12.834;2023-03-15T04:45:39;97171.72;;;2.80;69.55
22181;BME280;11256;50.830;12.834;2023-03-15T04:50:58;97166.84;;;2.77;70.03
22181;BME280;11256;50.830;12.834;2023-03-15T04:56:23;97171.88;;;2.73;69.56
22181;BME280;11256;50.830;12.834;2023-03-15T05:01:40;97185.84;;;2.75;69.50
22181;BME280;11256;50.830;12.834;2023-03-15T05:06:59;97197.84;;;2.73;69.74
22181;BME280;11256;50.830;12.834;2023-03-15T05:12:22;97204.94;;;2.67;69.46
22181;BME280;11256;50.830;12.834;2023-03-15T05:17:45;97216.84;;;2.60;69.67
22181;BME280;11256;50.830;12.834;2023-03-15T05:22:48;97220.81;;;2.57;69.84
22181;BME280;11256;50.830;12.834;2023-03-15T05:28:04;97234.69;;;2.54;69.27
22181;BME280;11256;50.830;12.834;2023-03-15T05:33:37;97244.22;;;2.50;69.66
22181;BME280;11256;50.830;12.834;2023-03-15T05:39:04;97248.19;;;2.48;69.76
22181;BME280;11256;50.830;12.834;2023-03-15T05:44:43;97257.50;;;2.45;69.76
22181;BME280;11256;50.830;12.834;2023-03-15T05:50:03;97252.28;;;2.39;69.31
22181;BME280;11256;50.830;12.834;2023-03-15T05:55:27;97273.31;;;2.47;69.77
22181;BME280;11256;50.830;12.834;2023-03-15T06:00:39;97259.34;;;2.45;69.67
22181;BME280;11256;50.830;12.834;2023-03-15T06:05:49;97279.19;;;2.60;69.81
22181;BME280;11256;50.830;12.834;2023-03-15T06:10:55;97290.06;;;2.87;69.71
22181;BME280;11256;50.830;12.834;2023-03-15T06:15:55;97310.53;;;3.09;69.23
22181;BME280;11256;50.830;12.834;2023-03-15T06:20:56;97303.25;;;3.38;70.37
22181;BME280;11256;50.830;12.834;2023-03-15T06:25:57;97312.31;;;3.91;71.88
22181;BME280;11256;50.830;12.834;2023-03-15T06:30:57;97310.28;;;4.68;71.61
22181;BME280;11256;50.830;12.834;2023-03-15T06:36:07;97311.13;;;5.58;69.77
22181;BME280;11256;50.830;12.834;2023-03-15T06:41:07;97313.00;;;6.50;67.59
22181;BME280;11256;50.830;12.834;2023-03-15T06:46:09;97331.78;;;7.27;65.76
22181;BME280;11256;50.830;12.834;2023-03-15T06:51:10;97325.59;;;7.76;63.73
22181;BME280;11256;50.830;12.834;2023-03-15T06:56:10;97332.28;;;7.94;62.87
22181;BME280;11256;50.830;12.834;2023-03-15T07:01:12;97336.63;;;7.70;62.16
22181;BME280;11256;50.830;12.834;2023-03-15T07:06:12;97316.13;;;7.34;61.19
22181;BME280;11256;50.830;12.834;2023-03-15T07:11:13;97341.97;;;7.00;60.97
22181;BME280;11256;50.830;12.834;2023-03-15T07:16:13;97341.94;;;6.90;61.62
22181;BME280;11256;50.830;12.834;2023-03-15T07:21:14;97355.84;;;6.62;60.61
22181;BME280;11256;50.830;12.834;2023-03-15T07:26:14;97342.91;;;6.54;62.36
22181;BME280;11256;50.830;12.834;2023-03-15T07:31:14;97347.56;;;6.78;61.70
22181;BME280;11256;50.830;12.834;2023-03-15T07:36:15;97360.75;;;6.85;61.28
22181;BME280;11256;50.830;12.834;2023-03-15T07:41:16;97372.50;;;6.59;61.13
22181;BME280;11256;50.830;12.834;2023-03-15T07:46:28;97366.00;;;6.45;60.54
22181;BME280;11256;50.830;12.834;2023-03-15T07:51:28;97379.94;;;6.37;61.69
22181;BME280;11256;50.830;12.834;2023-03-15T07:56:28;97393.25;;;6.12;61.84
22181;BME280;11256;50.830;12.834;2023-03-15T08:01:29;97386.13;;;5.91;62.59
22181;BME280;11256;50.830;12.834;2023-03-15T08:06:29;97391.28;;;5.71;62.53
22181;BME280;11256;50.830;12.834;2023-03-15T08:11:31;97395.50;;;5.57;62.57
22181;BME280;11256;50.830;12.834;2023-03-15T08:16:32;97405.56;;;5.40;63.23
22181;BME280;11256;50.830;12.834;2023-03-15T08:21:32;97403.84;;;5.29;63.39
22181;BME280;11256;50.830;12.834;2023-03-15T08:26:32;97395.63;;;5.14;63.96
22181;BME280;11256;50.830;12.834;2023-03-15T08:31:33;97412.53;;;5.14;64.63
22181;BME280;11256;50.830;12.834;2023-03-15T08:36:33;97418.59;;;5.05;65.10
22181;BME280;11256;50.830;12.834;2023-03-15T08:41:34;97428.09;;;5.12;66.25
22181;BME280;11256;50.830;12.834;2023-03-15T08:46:34;97436.44;;;5.16;66.44
22181;BME280;11256;50.830;12.834;2023-03-15T08:51:35;97426.72;;;5.10;66.50
22181;BME280;11256;50.830;12.834;2023-03-15T08:56:36;97443.41;;;5.12;66.63
22181;BME280;11256;50.830;12.834;2023-03-15T09:01:37;97444.97;;;5.08;66.49
22181;BME280;11256;50.830;12.834;2023-03-15T09:06:39;97445.38;;;5.00;67.03
22181;BME280;11256;50.830;12.834;2023-03-15T09:11:39;97452.97;;;5.03;66.61
22181;BME280;11256;50.830;12.834;2023-03-15T09:16:40;97444.00;;;4.97;66.99
22181;BME280;11256;50.830;12.834;2023-03-15T09:21:41;97453.56;;;5.10;68.25
22181;BME280;11256;50.830;12.834;2023-03-15T09:26:41;97444.56;;;5.21;68.09
22181;BME280;11256;50.830;12.834;2023-03-15T09:31:42;97471.59;;;5.36;68.51
22181;BME280;11256;50.830;12.834;2023-03-15T09:36:42;97478.13;;;5.45;68.27
22181;BME280;11256;50.830;12.834;2023-03-15T09:41:45;97478.69;;;5.47;68.37
22181;BME280;11256;50.830;12.834;2023-03-15T09:57:17;97491.88;;;5.48;68.25
22181;BME280;11256;50.830;12.834;2023-03-15T10:02:27;97490.56;;;5.51;68.38
22181;BME280;11256;50.830;12.834;2023-03-15T10:07:28;97493.91;;;5.63;68.72
22181;BME280;11256;50.830;12.834;2023-03-15T10:12:33;97492.34;;;5.67;68.32
22181;BME280;11256;50.830;12.834;2023-03-15T10:22:58;97471.94;;;5.71;68.30
22181;BME280;11256;50.830;12.834;2023-03-15T10:28:13;97494.97;;;5.88;68.16
22181;BME280;11256;50.830;12.834;2023-03-15T10:33:29;97478.66;;;5.95;68.96
22181;BME280;11256;50.830;12.834;2023-03-15T10:38:31;97499.25;;;6.16;69.48
22181;BME280;11256;50.830;12.834;2023-03-15T10:43:34;97506.88;;;6.29;68.73
22181;BME280;11256;50.830;12.834;2023-03-15T10:48:38;97501.81;;;6.32;68.11
22181;BME280;11256;50.830;12.834;2023-03-15T10:53:57;97494.50;;;6.28;68.41
22181;BME280;11256;50.830;12.834;2023-03-15T10:58:59;97497.31;;;6.43;69.15
22181;BME280;11256;50.830;12.834;2023-03-15T11:04:11;97503.34;;;6.60;69.02
22181;BME280;11256;50.830;12.834;2023-03-15T11:09:15;97500.69;;;6.65;69.22
22181;BME280;11256;50.830;12.834;2023-03-15T11:14:16;97502.91;;;6.78;68.13
22181;BME280;11256;50.830;12.834;2023-03-15T11:19:21;97504.03;;;6.82;67.98
22181;BME280;11256;50.830;12.834;2023-03-15T11:24:27;97502.13;;;6.82;68.78
22181;BME280;11256;50.830;12.834;2023-03-15T11:29:33;97514.81;;;6.87;67.67
22181;BME280;11256;50.830;12.834;2023-03-15T11:34:42;97512.66;;;6.89;67.78
22181;BME280;11256;50.830;12.834;2023-03-15T11:39:50;97509.16;;;6.88;67.50
22181;BME280;11256;50.830;12.834;2023-03-15T11:44:54;97510.53;;;6.91;67.63
22181;BME280;11256;50.830;12.834;2023-03-15T11:49:57;97497.63;;;6.93;67.51
22181;BME280;11256;50.830;12.834;2023-03-15T11:54:59;97479.06;;;7.01;67.40
22181;BME280;11256;50.830;12.834;2023-03-15T12:06:05;97487.06;;;7.48;67.94
22181;BME280;11256;50.830;12.834;2023-03-15T12:16:13;97474.72;;;7.82;67.84
22181;BME280;11256;50.830;12.834;2023-03-15T12:21:27;97476.88;;;8.00;67.86
22181;BME280;11256;50.830;12.834;2023-03-15T12:26:38;97482.56;;;8.08;66.97
22181;BME280;11256;50.830;12.834;2023-03-15T12:36:57;97495.78;;;8.15;66.50
22181;BME280;11256;50.830;12.834;2023-03-15T12:42:00;97481.75;;;8.03;65.69
22181;BME280;11256;50.830;12.834;2023-03-15T12:47:02;97497.41;;;7.91;65.43
22181;BME280;11256;50.830;12.834;2023-03-15T12:57:13;97502.47;;;7.67;64.77
22181;BME280;11256;50.830;12.834;2023-03-15T13:07:53;97523.19;;;7.47;65.29
22181;BME280;11256;50.830;12.834;2023-03-15T13:13:22;97542.53;;;7.39;65.13
22181;BME280;11256;50.830;12.834;2023-03-15T13:18:25;97557.63;;;7.30;65.04
22181;BME280;11256;50.830;12.834;2023-03-15T13:23:30;97556.19;;;7.17;64.74
22181;BME280;11256;50.830;12.834;2023-03-15T13:28:35;97553.16;;;7.04;64.49
22181;BME280;11256;50.830;12.834;2023-03-15T13:33:37;97566.03;;;6.92;65.11
22181;BME280;11256;50.830;12.834;2023-03-15T13:38:40;97568.69;;;6.87;65.13
22181;BME280;11256;50.830;12.834;2023-03-15T13:43:41;97552.56;;;6.92;66.28
22181;BME280;11256;50.830;12.834;2023-03-15T13:48:43;97570.41;;;7.08;67.84
22181;BME280;11256;50.830;12.834;2023-03-15T13:53:46;97563.53;;;7.27;69.55
22181;BME280;11256;50.830;12.834;2023-03-15T13:58:49;97572.81;;;7.56;72.26
22181;BME280;11256;50.830;12.834;2023-03-15T14:03:57;97566.38;;;7.67;71.13
22181;BME280;11256;50.830;12.834;2023-03-15T14:09:08;97560.22;;;7.91;75.48
22181;BME280;11256;50.830;12.834;2023-03-15T14:14:28;97567.56;;;8.16;75.21
22181;BME280;11256;50.830;12.834;2023-03-15T14:19:32;97567.63;;;8.36;75.70
22181;BME280;11256;50.830;12.834;2023-03-15T14:24:38;97565.47;;;8.38;76.09
22181;BME280;11256;50.830;12.834;2023-03-15T14:29:45;97569.50;;;8.45;74.37
22181;BME280;11256;50.830;12.834;2023-03-15T14:34:46;97569.25;;;8.47;74.68
22181;BME280;11256;50.830;12.834;2023-03-15T14:39:48;97573.31;;;8.49;74.39
22181;BME280;11256;50.830;12.834;2023-03-15T14:44:48;97584.38;;;8.68;74.20
22181;BME280;11256;50.830;12.834;2023-03-15T14:49:49;97571.66;;;8.68;73.70
22181;BME280;11256;50.830;12.834;2023-03-15T14:54:49;97574.66;;;8.77;73.26
22181;BME280;11256;50.830;12.834;2023-03-15T14:59:49;97573.56;;;8.78;73.05
22181;BME280;11256;50.830;12.834;2023-03-15T15:04:50;97570.88;;;8.88;73.51
22181;BME280;11256;50.830;12.834;2023-03-15T15:09:50;97588.13;;;9.02;73.77
22181;BME280;11256;50.830;12.834;2023-03-15T15:14:51;97587.56;;;9.15;73.90
22181;BME280;11256;50.830;12.834;2023-03-15T15:19:51;97608.38;;;9.24;73.65
22181;BME280;11256;50.830;12.834;2023-03-15T15:24:52;97604.00;;;9.38;73.53
22181;BME280;11256;50.830;12.834;2023-03-15T15:29:52;97599.41;;;9.34;72.80
22181;BME280;11256;50.830;12.834;2023-03-15T15:34:53;97599.94;;;9.31;72.69
22181;BME280;11256;50.830;12.834;2023-03-15T15:39:54;97621.06;;;9.34;72.52
22181;BME280;11256;50.830;12.834;2023-03-15T15:44:55;97627.56;;;9.28;72.04
22181;BME280;11256;50.830;12.834;2023-03-15T15:49:55;97628.06;;;9.30;71.51
22181;BME280;11256;50.830;12.834;2023-03-15T15:54:56;97631.03;;;9.33;70.37
22181;BME280;11256;50.830;12.834;2023-03-15T15:59:58;97636.75;;;9.27;70.04
22181;BME280;11256;50.830;12.834;2023-03-15T16:04:58;97644.88;;;9.22;69.26
22181;BME280;11256;50.830;12.834;2023-03-15T16:09:59;97663.78;;;9.17;69.43
22181;BME280;11256;50.830;12.834;2023-03-15T16:14:59;97662.72;;;9.08;68.97
22181;BME280;11256;50.830;12.834;2023-03-15T16:19:59;97675.16;;;8.99;68.90
22181;BME280;11256;50.830;12.834;2023-03-15T16:25:00;97677.84;;;8.84;69.02
22181;BME280;11256;50.830;12.834;2023-03-15T16:30:01;97688.13;;;8.77;69.11
22181;BME280;11256;50.830;12.834;2023-03-15T16:35:04;97695.13;;;8.68;68.35
22181;BME280;11256;50.830;12.834;2023-03-15T16:40:29;97697.78;;;8.53;67.66
22181;BME280;11256;50.830;12.834;2023-03-15T16:45:30;97708.03;;;8.41;67.38
22181;BME280;11256;50.830;12.834;2023-03-15T16:50:31;97700.13;;;8.24;67.04
22181;BME280;11256;50.830;12.834;2023-03-15T16:55:33;97720.31;;;8.17;66.90
22181;BME280;11256;50.830;12.834;2023-03-15T17:00:33;97715.13;;;8.00;66.64
22181;BME280;11256;50.830;12.834;2023-03-15T17:05:33;97720.22;;;7.92;66.54
22181;BME280;11256;50.830;12.834;2023-03-15T17:10:33;97734.75;;;7.86;66.25
22181;BME280;11256;50.830;12.834;2023-03-15T17:15:34;97750.06;;;7.75;65.99
22181;BME280;11256;50.830;12.834;2023-03-15T17:20:34;97753.44;;;7.56;65.32
22181;BME280;11256;50.830;12.834;2023-03-15T17:25:35;97767.69;;;7.46;65.57
22181;BME280;11256;50.830;12.834;2023-03-15T17:30:36;97765.09;;;7.25;65.00
22181;BME280;11256;50.830;12.834;2023-03-15T17:35:40;97802.00;;;7.24;64.94
22181;BME280;11256;50.830;12.834;2023-03-15T17:40:41;97794.00;;;7.08;64.78
22181;BME280;11256;50.830;12.834;2023-03-15T17:45:42;97804.66;;;6.93;64.74
22181;BME280;11256;50.830;12.834;2023-03-15T17:50:43;97802.28;;;6.70;64.87
22181;BME280;11256;50.830;12.834;2023-03-15T17:55:44;97796.19;;;6.58;64.88
22181;BME280;11256;50.830;12.834;2023-03-15T18:00:48;97821.50;;;6.57;64.84
22181;BME280;11256;50.830;12.834;2023-03-15T18:05:50;97804.59;;;6.40;65.11
22181;BME280;11256;50.830;12.834;2023-03-15T18:10:50;97830.44;;;6.41;65.25
22181;BME280;11256;50.830;12.834;2023-03-15T18:15:51;97814.00;;;6.16;65.24
22181;BME280;11256;50.830;12.834;2023-03-15T18:20:51;97843.91;;;6.19;64.92
22181;BME280;11256;50.830;12.834;2023-03-15T18:25:51;97831.09;;;6.10;65.16
22181;BME280;11256;50.830;12.834;2023-03-15T18:30:52;97837.00;;;6.07;65.15
22181;BME280;11256;50.830;12.834;2023-03-15T18:35:52;97844.75;;;6.03;65.37
22181;BME280;11256;50.830;12.834;2023-03-15T18:40:52;97849.00;;;5.99;64.98
22181;BME280;11256;50.830;12.834;2023-03-15T18:45:54;97848.03;;;5.89;64.73
22181;BME280;11256;50.830;12.834;2023-03-15T18:50:55;97855.91;;;5.79;64.71
22181;BME280;11256;50.830;12.834;2023-03-15T18:55:55;97843.78;;;5.60;64.88
22181;BME280;11256;50.830;12.834;2023-03-15T19:00:55;97879.03;;;5.63;65.03
22181;BME280;11256;50.830;12.834;2023-03-15T19:06:02;97870.81;;;5.53;64.89
22181;BME280;11256;50.830;12.834;2023-03-15T19:11:03;97877.41;;;5.46;64.76
22181;BME280;11256;50.830;12.834;2023-03-15T19:16:04;97881.00;;;5.35;64.43
22181;BME280;11256;50.830;12.834;2023-03-15T19:21:04;97887.94;;;5.19;64.94
22181;BME280;11256;50.830;12.834;2023-03-15T19:26:04;97899.97;;;5.17;65.07
22181;BME280;11256;50.830;12.834;2023-03-15T19:31:06;97888.38;;;5.00;65.31
22181;BME280;11256;50.830;12.834;2023-03-15T19:36:08;97911.03;;;5.04;65.35
22181;BME280;11256;50.830;12.834;2023-03-15T19:41:08;97909.88;;;5.00;65.28
22181;BME280;11256;50.830;12.834;2023-03-15T19:46:10;97918.31;;;4.92;65.29
22181;BME280;11256;50.830;12.834;2023-03-15T19:51:12;97930.00;;;4.86;65.03
22181;BME280;11256;50.830;12.834;2023-03-15T19:56:13;97940.03;;;4.79;65.06
22181;BME280;11256;50.830;12.834;2023-03-15T20:01:13;97921.78;;;4.64;65.09
22181;BME280;11256;50.830;12.834;2023-03-15T20:06:15;97945.69;;;4.66;65.53
22181;BME280;11256;50.830;12.834;2023-03-15T20:11:15;97949.31;;;4.60;65.62
22181;BME280;11256;50.830;12.834;2023-03-15T20:16:20;97952.72;;;4.44;66.18
22181;BME280;11256;50.830;12.834;2023-03-15T20:21:21;97948.06;;;4.28;66.50
22181;BME280;11256;50.830;12.834;2023-03-15T20:26:21;97941.22;;;4.09;66.98
22181;BME280;11256;50.830;12.834;2023-03-15T20:31:24;97964.06;;;4.11;67.02
22181;BME280;11256;50.830;12.834;2023-03-15T20:36:25;97974.06;;;4.04;67.10
22181;BME280;11256;50.830;12.834;2023-03-15T20:41:27;97977.88;;;3.97;67.21
22181;BME280;11256;50.830;12.834;2023-03-15T20:46:27;97978.03;;;3.90;67.48
22181;BME280;11256;50.830;12.834;2023-03-15T20:51:28;97978.94;;;3.84;67.27
22181;BME280;11256;50.830;12.834;2023-03-15T20:56:28;97989.97;;;3.76;67.52
22181;BME280;11256;50.830;12.834;2023-03-15T21:01:29;97969.44;;;3.59;67.66
22181;BME280;11256;50.830;12.834;2023-03-15T21:06:30;97991.47;;;3.61;67.69
22181;BME280;11256;50.830;12.834;2023-03-15T21:11:31;97971.75;;;3.44;68.13
22181;BME280;11256;50.830;12.834;2023-03-15T21:16:31;97988.53;;;3.51;67.69
22181;BME280;11256;50.830;12.834;2023-03-15T21:21:35;97984.53;;;3.42;67.97
22181;BME280;11256;50.830;12.834;2023-03-15T21:26:37;97998.69;;;3.31;68.55
22181;BME280;11256;50.830;12.834;2023-03-15T21:31:37;97994.59;;;3.28;67.98
22181;BME280;11256;50.830;12.834;2023-03-15T21:36:37;98002.75;;;3.22;68.19
22181;BME280;11256;50.830;12.834;2023-03-15T21:41:38;98009.22;;;3.14;68.25
22181;BME280;11256;50.830;12.834;2023-03-15T21:46:44;98012.56;;;3.10;68.44
22181;BME280;11256;50.830;12.834;2023-03-15T21:51:45;98027.09;;;3.02;68.49
22181;BME280;11256;50.830;12.834;2023-03-15T21:56:45;98020.16;;;2.95;68.67
22181;BME280;11256;50.830;12.834;2023-03-15T22:01:46;98029.09;;;2.89;68.84
22181;BME280;11256;50.830;12.834;2023-03-15T22:06:47;98015.47;;;2.72;68.67
22181;BME280;11256;50.830;12.834;2023-03-15T22:11:48;98028.78;;;2.79;68.26
22181;BME280;11256;50.830;12.834;2023-03-15T22:16:48;98035.56;;;2.81;68.14
22181;BME280;11256;50.830;12.834;2023-03-15T22:21:48;98043.06;;;2.73;68.17
22181;BME280;11256;50.830;12.834;2023-03-15T22:26:49;98030.84;;;2.59;68.33
22181;BME280;11256;50.830;12.834;2023-03-15T22:31:52;98038.28;;;2.57;68.17
22181;BME280;11256;50.830;12.834;2023-03-15T22:36:52;98043.31;;;2.47;68.71
22181;BME280;11256;50.830;12.834;2023-03-15T22:41:53;98047.91;;;2.40;68.59
22181;BME280;11256;50.830;12.834;2023-03-15T22:46:53;98031.97;;;2.27;68.80
22181;BME280;11256;50.830;12.834;2023-03-15T22:51:53;98049.03;;;2.32;68.96
22181;BME280;11256;50.830;12.834;2023-03-15T22:56:53;98048.03;;;2.27;68.47
22181;BME280;11256;50.830;12.834;2023-03-15T23:01:55;98047.84;;;2.22;68.61
22181;BME280;11256;50.830;12.834;2023-03-15T23:06:55;98051.00;;;2.19;68.60
22181;BME280;11256;50.830;12.834;2023-03-15T23:11:56;98056.91;;;2.21;68.27
22181;BME280;11256;50.830;12.834;2023-03-15T23:16:56;98049.72;;;1.97;68.69
22181;BME280;11256;50.830;12.834;2023-03-15T23:21:56;98064.25;;;2.01;68.61
22181;BME280;11256;50.830;12.834;2023-03-15T23:26:57;98068.84;;;1.94;68.88
22181;BME280;11256;50.830;12.834;2023-03-15T23:31:57;98077.91;;;1.93;68.37
22181;BME280;11256;50.830;12.834;2023-03-15T23:36:58;98090.88;;;1.89;68.71
22181;BME280;11256;50.830;12.834;2023-03-15T23:41:58;98088.69;;;1.80;68.42
22181;BME280;11256;50.830;12.834;2023-03-15T23:46:58;98101.88;;;1.75;68.57
22181;BME280;11256;50.830;12.834;2023-03-15T23:52:00;98080.31;;;1.70;68.24
22181;BME280;11256;50.830;12.834;2023-03-15T23:57:06;98100.34;;;1.85;68.65
